sensor_id;sensor_type;location;lat;lon;timestamp;P1;durP1;ratioP1;P2;durP2;ratioP2
18973;SDS011;9621;48.690;9.466;2023-02-26T07:04:15;8.43;;;2.90;;
18973;SDS011;9621;48.690;9.466;2023-02-26T07:06:47;4.07;;;2.60;;
18973;SDS011;9621;48.690;9.466;2023-02-26T07:09:19;4.20;;;2.80;;
18973;SDS011;9621;48.690;9.466;2023-02-26T07:11:46;7.10;;;4.03;;
18973;SDS011;9621;48.690;9.466;2023-02-26T07:16:51;6.47;;;3.87;;
18973;SDS011;9621;48.690;9.466;2023-02-26T07:19:20;7.67;;;3.87;;
18973;SDS011;9621;48.690;9.466;2023-02-26T07:21:50;7.27;;;4.03;;
18973;SDS011;9621;48.690;9.466;2023-02-26T07:24:19;5.33;;;3.83;;
18973;SDS011;9621;48.690;9.466;2023-02-26T07:26:46;6.73;;;4.13;;
18973;SDS011;9621;48.690;9.466;2023-02-26T07:29:13;10.17;;;5.23;;
18973;SDS011;9621;48.690;9.466;2023-02-26T07:31:40;5.07;;;3.20;;
18973;SDS011;9621;48.690;9.466;2023-02-26T07:34:17;8.53;;;3.23;;
18973;SDS011;9621;48.690;9.466;2023-02-26T07:36:48;5.27;;;3.37;;
18973;SDS011;9621;48.690;9.466;2023-02-26T07:39:16;6.10;;;3.80;;
18973;SDS011;9621;48.690;9.466;2023-02-26T07:41:43;14.57;;;4.60;;
18973;SDS011;9621;48.690;9.466;2023-02-26T07:44:13;8.37;;;3.87;;
18973;SDS011;9621;48.690;9.466;2023-02-26T07:46:40;5.03;;;3.73;;
18973;SDS011;9621;48.690;9.466;2023-02-26T07:49:11;8.37;;;3.47;;
18973;SDS011;9621;48.690;9.466;2023-02-26T07:51:41;9.60;;;4.10;;
18973;SDS011;9621;48.690;9.466;2023-02-26T07:54:11;8.67;;;4.30;;
18973;SDS011;9621;48.690;9.466;2023-02-26T07:56:39;7.57;;;3.77;;
18973;SDS011;9621;48.690;9.466;2023-02-26T07:59:23;5.90;;;3.43;;
18973;SDS011;9621;48.690;9.466;2023-02-26T08:01:51;7.30;;;4.07;;
18973;SDS011;9621;48.690;9.466;2023-02-26T08:04:21;10.40;;;4.70;;
18973;SDS011;9621;48.690;9.466;2023-02-26T08:06:57;6.37;;;3.83;;
18973;SDS011;9621;48.690;9.466;2023-02-26T08:09:27;12.70;;;4.33;;
18973;SDS011;9621;48.690;9.466;2023-02-26T08:11:57;7.43;;;4.03;;
18973;SDS011;9621;48.690;9.466;2023-02-26T08:14:24;7.03;;;2.93;;
18973;SDS011;9621;48.690;9.466;2023-02-26T08:16:52;7.83;;;3.50;;
18973;SDS011;9621;48.690;9.466;2023-02-26T08:19:19;10.17;;;3.20;;
18973;SDS011;9621;48.690;9.466;2023-02-26T08:21:46;4.40;;;3.20;;
18973;SDS011;9621;48.690;9.466;2023-02-26T08:24:15;7.83;;;3.60;;
18973;SDS011;9621;48.690;9.466;2023-02-26T08:26:49;4.53;;;3.00;;
18973;SDS011;9621;48.690;9.466;2023-02-26T08:52:51;6.43;;;3.40;;
18973;SDS011;9621;48.690;9.466;2023-02-26T08:55:23;7.67;;;3.93;;
18973;SDS011;9621;48.690;9.466;2023-02-26T08:57:56;6.30;;;3.30;;
18973;SDS011;9621;48.690;9.466;2023-02-26T09:00:23;11.00;;;4.43;;
18973;SDS011;9621;48.690;9.466;2023-02-26T09:02:50;9.37;;;3.57;;
18973;SDS011;9621;48.690;9.466;2023-02-26T09:05:17;5.37;;;2.70;;
18973;SDS011;9621;48.690;9.466;2023-02-26T09:07:44;4.70;;;2.50;;
18973;SDS011;9621;48.690;9.466;2023-02-26T09:10:13;5.80;;;3.17;;
18973;SDS011;9621;48.690;9.466;2023-02-26T09:12:40;4.93;;;2.80;;
18973;SDS011;9621;48.690;9.466;2023-02-26T09:15:08;6.80;;;2.67;;
18973;SDS011;9621;48.690;9.466;2023-02-26T09:17:40;5.83;;;2.40;;
18973;SDS011;9621;48.690;9.466;2023-02-26T09:20:08;5.50;;;2.57;;
18973;SDS011;9621;48.690;9.466;2023-02-26T09:22:36;7.27;;;2.80;;
18973;SDS011;9621;48.690;9.466;2023-02-26T09:25:03;5.67;;;2.87;;
18973;SDS011;9621;48.690;9.466;2023-02-26T09:27:33;4.53;;;2.90;;
18973;SDS011;9621;48.690;9.466;2023-02-26T09:30:00;4.40;;;2.50;;
18973;SDS011;9621;48.690;9.466;2023-02-26T09:32:28;4.47;;;3.13;;
18973;SDS011;9621;48.690;9.466;2023-02-26T09:34:55;5.33;;;2.77;;
18973;SDS011;9621;48.690;9.466;2023-02-26T09:37:23;3.97;;;2.43;;
18973;SDS011;9621;48.690;9.466;2023-02-26T09:39:50;6.80;;;2.90;;
18973;SDS011;9621;48.690;9.466;2023-02-26T09:42:28;4.77;;;2.60;;
18973;SDS011;9621;48.690;9.466;2023-02-26T09:45:09;5.37;;;2.63;;
18973;SDS011;9621;48.690;9.466;2023-02-26T09:47:43;3.53;;;2.50;;
18973;SDS011;9621;48.690;9.466;2023-02-26T09:50:17;3.40;;;2.60;;
18973;SDS011;9621;48.690;9.466;2023-02-26T09:52:50;3.33;;;2.57;;
18973;SDS011;9621;48.690;9.466;2023-02-26T09:55:23;3.50;;;2.60;;
18973;SDS011;9621;48.690;9.466;2023-02-26T09:57:57;4.77;;;2.30;;
18973;SDS011;9621;48.690;9.466;2023-02-26T10:00:29;5.03;;;2.87;;
18973;SDS011;9621;48.690;9.466;2023-02-26T10:03:13;5.00;;;2.63;;
18973;SDS011;9621;48.690;9.466;2023-02-26T10:05:56;4.83;;;2.60;;
18973;SDS011;9621;48.690;9.466;2023-02-26T10:08:45;4.27;;;2.67;;
18973;SDS011;9621;48.690;9.466;2023-02-26T10:11:30;3.87;;;2.80;;
18973;SDS011;9621;48.690;9.466;2023-02-26T10:14:09;3.77;;;2.67;;
18973;SDS011;9621;48.690;9.466;2023-02-26T10:16:51;4.40;;;2.83;;
18973;SDS011;9621;48.690;9.466;2023-02-26T10:19:25;4.43;;;2.57;;
18973;SDS011;9621;48.690;9.466;2023-02-26T10:21:56;3.70;;;2.47;;
18973;SDS011;9621;48.690;9.466;2023-02-26T10:24:31;5.50;;;2.77;;
18973;SDS011;9621;48.690;9.466;2023-02-26T10:27:06;3.87;;;2.73;;
18973;SDS011;9621;48.690;9.466;2023-02-26T10:29:56;4.90;;;2.70;;
18973;SDS011;9621;48.690;9.466;2023-02-26T10:32:28;2.87;;;2.20;;
18973;SDS011;9621;48.690;9.466;2023-02-26T10:35:04;5.67;;;2.60;;
18973;SDS011;9621;48.690;9.466;2023-02-26T10:37:50;5.07;;;2.70;;
18973;SDS011;9621;48.690;9.466;2023-02-26T10:40:30;4.43;;;3.00;;
18973;SDS011;9621;48.690;9.466;2023-02-26T10:43:08;5.03;;;2.63;;
18973;SDS011;9621;48.690;9.466;2023-02-26T10:49:04;3.67;;;2.30;;
18973;SDS011;9621;48.690;9.466;2023-02-26T10:52:00;5.77;;;3.07;;
18973;SDS011;9621;48.690;9.466;2023-02-26T10:54:38;8.03;;;3.07;;
18973;SDS011;9621;48.690;9.466;2023-02-26T10:57:14;3.27;;;2.67;;
18973;SDS011;9621;48.690;9.466;2023-02-26T10:59:46;5.03;;;3.37;;
18973;SDS011;9621;48.690;9.466;2023-02-26T11:02:24;3.73;;;2.50;;
18973;SDS011;9621;48.690;9.466;2023-02-26T11:05:02;4.37;;;2.63;;
18973;SDS011;9621;48.690;9.466;2023-02-26T11:07:31;5.33;;;2.50;;
18973;SDS011;9621;48.690;9.466;2023-02-26T11:10:01;3.77;;;2.20;;
18973;SDS011;9621;48.690;9.466;2023-02-26T11:12:29;3.17;;;2.20;;
18973;SDS011;9621;48.690;9.466;2023-02-26T11:14:59;3.67;;;2.50;;
18973;SDS011;9621;48.690;9.466;2023-02-26T11:17:28;5.90;;;2.73;;
18973;SDS011;9621;48.690;9.466;2023-02-26T11:19:58;2.63;;;2.33;;
18973;SDS011;9621;48.690;9.466;2023-02-26T11:22:32;3.87;;;2.50;;
18973;SDS011;9621;48.690;9.466;2023-02-26T11:25:04;8.63;;;2.43;;
18973;SDS011;9621;48.690;9.466;2023-02-26T11:27:34;3.63;;;2.30;;
18973;SDS011;9621;48.690;9.466;2023-02-26T11:30:04;3.53;;;2.47;;
18973;SDS011;9621;48.690;9.466;2023-02-26T11:32:38;2.50;;;2.30;;
18973;SDS011;9621;48.690;9.466;2023-02-26T11:35:06;5.07;;;2.80;;
18973;SDS011;9621;48.690;9.466;2023-02-26T11:37:34;2.87;;;2.30;;
18973;SDS011;9621;48.690;9.466;2023-02-26T11:40:04;5.17;;;3.30;;
18973;SDS011;9621;48.690;9.466;2023-02-26T11:42:40;3.47;;;2.47;;
18973;SDS011;9621;48.690;9.466;2023-02-26T11:45:13;5.80;;;2.83;;
18973;SDS011;9621;48.690;9.466;2023-02-26T11:47:45;6.33;;;3.30;;
18973;SDS011;9621;48.690;9.466;2023-02-26T11:50:17;4.73;;;3.00;;
18973;SDS011;9621;48.690;9.466;2023-02-26T11:52:47;6.57;;;3.43;;
18973;SDS011;9621;48.690;9.466;2023-02-26T11:55:26;4.80;;;2.27;;
18973;SDS011;9621;48.690;9.466;2023-02-26T11:57:55;3.13;;;2.73;;
18973;SDS011;9621;48.690;9.466;2023-02-26T12:00:28;3.67;;;2.77;;
18973;SDS011;9621;48.690;9.466;2023-02-26T12:03:01;2.50;;;2.30;;
18973;SDS011;9621;48.690;9.466;2023-02-26T12:05:29;3.83;;;2.83;;
18973;SDS011;9621;48.690;9.466;2023-02-26T12:07:57;5.83;;;2.70;;
18973;SDS011;9621;48.690;9.466;2023-02-26T12:10:26;3.70;;;2.43;;
18973;SDS011;9621;48.690;9.466;2023-02-26T12:13:04;3.30;;;2.20;;
18973;SDS011;9621;48.690;9.466;2023-02-26T12:15:36;3.97;;;3.20;;
18973;SDS011;9621;48.690;9.466;2023-02-26T12:21:08;3.73;;;2.70;;
18973;SDS011;9621;48.690;9.466;2023-02-26T12:23:56;2.50;;;2.30;;
18973;SDS011;9621;48.690;9.466;2023-02-26T12:26:46;2.77;;;2.30;;
18973;SDS011;9621;48.690;9.466;2023-02-26T12:29:27;2.60;;;2.40;;
18973;SDS011;9621;48.690;9.466;2023-02-26T12:32:14;3.63;;;2.07;;
18973;SDS011;9621;48.690;9.466;2023-02-26T12:35:07;4.73;;;2.60;;
18973;SDS011;9621;48.690;9.466;2023-02-26T12:38:07;5.00;;;2.10;;
18973;SDS011;9621;48.690;9.466;2023-02-26T12:40:46;2.90;;;2.60;;
18973;SDS011;9621;48.690;9.466;2023-02-26T12:43:23;2.20;;;2.00;;
18973;SDS011;9621;48.690;9.466;2023-02-26T12:46:00;3.10;;;2.10;;
18973;SDS011;9621;48.690;9.466;2023-02-26T12:48:42;3.07;;;2.33;;
18973;SDS011;9621;48.690;9.466;2023-02-26T12:51:48;2.40;;;2.20;;
18973;SDS011;9621;48.690;9.466;2023-02-26T12:54:35;2.17;;;1.97;;
18973;SDS011;9621;48.690;9.466;2023-02-26T13:00:26;2.50;;;2.30;;
18973;SDS011;9621;48.690;9.466;2023-02-26T13:03:25;4.33;;;2.67;;
18973;SDS011;9621;48.690;9.466;2023-02-26T13:06:13;3.43;;;2.30;;
18973;SDS011;9621;48.690;9.466;2023-02-26T13:08:56;2.80;;;1.73;;
18973;SDS011;9621;48.690;9.466;2023-02-26T13:11:31;3.33;;;2.20;;
18973;SDS011;9621;48.690;9.466;2023-02-26T13:14:17;3.57;;;2.07;;
18973;SDS011;9621;48.690;9.466;2023-02-26T13:16:59;2.10;;;1.80;;
18973;SDS011;9621;48.690;9.466;2023-02-26T13:19:34;2.13;;;1.93;;
18973;SDS011;9621;48.690;9.466;2023-02-26T13:22:11;2.07;;;1.73;;
18973;SDS011;9621;48.690;9.466;2023-02-26T13:24:54;2.07;;;1.63;;
18973;SDS011;9621;48.690;9.466;2023-02-26T13:27:26;2.13;;;1.33;;
18973;SDS011;9621;48.690;9.466;2023-02-26T13:30:03;1.43;;;1.27;;
18973;SDS011;9621;48.690;9.466;2023-02-26T13:32:43;7.17;;;2.13;;
18973;SDS011;9621;48.690;9.466;2023-02-26T13:35:18;2.53;;;2.17;;
18973;SDS011;9621;48.690;9.466;2023-02-26T13:37:48;1.87;;;1.70;;
18973;SDS011;9621;48.690;9.466;2023-02-26T13:40:27;1.50;;;1.20;;
18973;SDS011;9621;48.690;9.466;2023-02-26T13:43:12;1.60;;;1.50;;
18973;SDS011;9621;48.690;9.466;2023-02-26T13:45:57;1.80;;;1.47;;
18973;SDS011;9621;48.690;9.466;2023-02-26T13:48:39;1.63;;;1.50;;
18973;SDS011;9621;48.690;9.466;2023-02-26T13:51:14;3.03;;;1.50;;
18973;SDS011;9621;48.690;9.466;2023-02-26T13:53:57;2.27;;;1.40;;
18973;SDS011;9621;48.690;9.466;2023-02-26T13:56:46;2.27;;;1.37;;
18973;SDS011;9621;48.690;9.466;2023-02-26T13:59:25;2.07;;;1.20;;
18973;SDS011;9621;48.690;9.466;2023-02-26T14:05:06;2.80;;;1.90;;
18973;SDS011;9621;48.690;9.466;2023-02-26T14:07:53;3.37;;;1.43;;
18973;SDS011;9621;48.690;9.466;2023-02-26T14:10:44;2.33;;;1.70;;
18973;SDS011;9621;48.690;9.466;2023-02-26T14:13:16;2.37;;;1.87;;
18973;SDS011;9621;48.690;9.466;2023-02-26T14:15:48;2.00;;;1.80;;
18973;SDS011;9621;48.690;9.466;2023-02-26T14:18:24;1.80;;;1.60;;
18973;SDS011;9621;48.690;9.466;2023-02-26T14:24:01;1.70;;;1.60;;
18973;SDS011;9621;48.690;9.466;2023-02-26T14:26:32;1.77;;;1.60;;
18973;SDS011;9621;48.690;9.466;2023-02-26T14:29:13;1.40;;;1.30;;
18973;SDS011;9621;48.690;9.466;2023-02-26T14:31:59;2.43;;;1.63;;
18973;SDS011;9621;48.690;9.466;2023-02-26T14:34:31;1.70;;;1.60;;
18973;SDS011;9621;48.690;9.466;2023-02-26T14:37:02;1.73;;;1.60;;
18973;SDS011;9621;48.690;9.466;2023-02-26T14:39:34;3.70;;;1.70;;
18973;SDS011;9621;48.690;9.466;2023-02-26T14:42:06;1.80;;;1.60;;
18973;SDS011;9621;48.690;9.466;2023-02-26T14:44:39;3.17;;;1.60;;
18973;SDS011;9621;48.690;9.466;2023-02-26T14:47:08;1.60;;;1.50;;
18973;SDS011;9621;48.690;9.466;2023-02-26T14:49:37;3.20;;;1.40;;
18973;SDS011;9621;48.690;9.466;2023-02-26T14:52:16;2.97;;;1.70;;
18973;SDS011;9621;48.690;9.466;2023-02-26T14:58:10;2.10;;;1.90;;
18973;SDS011;9621;48.690;9.466;2023-02-26T15:01:05;1.97;;;1.70;;
18973;SDS011;9621;48.690;9.466;2023-02-26T15:06:44;1.53;;;1.30;;
18973;SDS011;9621;48.690;9.466;2023-02-26T15:09:25;1.83;;;1.50;;
18973;SDS011;9621;48.690;9.466;2023-02-26T15:12:04;2.23;;;1.63;;
18973;SDS011;9621;48.690;9.466;2023-02-26T15:14:49;1.93;;;1.80;;
18973;SDS011;9621;48.690;9.466;2023-02-26T15:20:30;5.83;;;3.27;;
18973;SDS011;9621;48.690;9.466;2023-02-26T15:23:17;1.97;;;1.57;;
18973;SDS011;9621;48.690;9.466;2023-02-26T15:26:01;1.93;;;1.80;;
18973;SDS011;9621;48.690;9.466;2023-02-26T15:28:30;2.57;;;2.03;;
18973;SDS011;9621;48.690;9.466;2023-02-26T15:31:03;2.13;;;1.70;;
18973;SDS011;9621;48.690;9.466;2023-02-26T15:33:35;2.47;;;2.00;;
18973;SDS011;9621;48.690;9.466;2023-02-26T15:36:05;4.27;;;2.20;;
18973;SDS011;9621;48.690;9.466;2023-02-26T15:38:45;2.80;;;1.97;;
18973;SDS011;9621;48.690;9.466;2023-02-26T15:41:14;4.10;;;2.10;;
18973;SDS011;9621;48.690;9.466;2023-02-26T15:43:43;3.27;;;2.10;;
18973;SDS011;9621;48.690;9.466;2023-02-26T15:46:13;2.87;;;1.83;;
18973;SDS011;9621;48.690;9.466;2023-02-26T15:48:42;2.10;;;1.70;;
18973;SDS011;9621;48.690;9.466;2023-02-26T15:51:10;1.77;;;1.67;;
18973;SDS011;9621;48.690;9.466;2023-02-26T15:53:40;6.57;;;1.60;;
18973;SDS011;9621;48.690;9.466;2023-02-26T15:56:10;2.90;;;1.77;;
18973;SDS011;9621;48.690;9.466;2023-02-26T15:58:44;1.60;;;1.50;;
18973;SDS011;9621;48.690;9.466;2023-02-26T16:01:14;4.43;;;2.30;;
18973;SDS011;9621;48.690;9.466;2023-02-26T16:03:56;3.80;;;2.20;;
18973;SDS011;9621;48.690;9.466;2023-02-26T16:06:26;2.20;;;1.73;;
18973;SDS011;9621;48.690;9.466;2023-02-26T16:08:55;2.70;;;2.00;;
18973;SDS011;9621;48.690;9.466;2023-02-26T16:11:26;1.70;;;1.60;;
18973;SDS011;9621;48.690;9.466;2023-02-26T16:13:58;2.97;;;1.77;;
18973;SDS011;9621;48.690;9.466;2023-02-26T16:16:26;2.27;;;1.73;;
18973;SDS011;9621;48.690;9.466;2023-02-26T16:19:00;3.00;;;1.80;;
18973;SDS011;9621;48.690;9.466;2023-02-26T16:21:28;1.80;;;1.60;;
18973;SDS011;9621;48.690;9.466;2023-02-26T16:24:02;1.87;;;1.60;;
18973;SDS011;9621;48.690;9.466;2023-02-26T16:26:44;1.40;;;1.30;;
18973;SDS011;9621;48.690;9.466;2023-02-26T16:29:23;2.13;;;1.73;;
18973;SDS011;9621;48.690;9.466;2023-02-26T16:31:54;2.50;;;1.70;;
18973;SDS011;9621;48.690;9.466;2023-02-26T16:37:20;3.87;;;1.93;;
18973;SDS011;9621;48.690;9.466;2023-02-26T16:39:55;2.50;;;1.60;;
18973;SDS011;9621;48.690;9.466;2023-02-26T16:42:31;3.67;;;2.50;;
18973;SDS011;9621;48.690;9.466;2023-02-26T16:47:51;3.03;;;1.80;;
18973;SDS011;9621;48.690;9.466;2023-02-26T16:50:24;2.17;;;1.83;;
18973;SDS011;9621;48.690;9.466;2023-02-26T16:52:58;4.40;;;1.97;;
18973;SDS011;9621;48.690;9.466;2023-02-26T16:55:29;3.77;;;2.00;;
18973;SDS011;9621;48.690;9.466;2023-02-26T16:57:59;5.20;;;2.00;;
18973;SDS011;9621;48.690;9.466;2023-02-26T17:00:28;4.97;;;2.10;;
18973;SDS011;9621;48.690;9.466;2023-02-26T17:02:56;2.30;;;1.70;;
18973;SDS011;9621;48.690;9.466;2023-02-26T17:05:28;2.53;;;1.93;;
18973;SDS011;9621;48.690;9.466;2023-02-26T17:08:00;3.37;;;1.80;;
18973;SDS011;9621;48.690;9.466;2023-02-26T17:10:37;5.17;;;2.70;;
18973;SDS011;9621;48.690;9.466;2023-02-26T17:13:11;3.70;;;1.83;;
18973;SDS011;9621;48.690;9.466;2023-02-26T17:15:43;1.90;;;1.70;;
18973;SDS011;9621;48.690;9.466;2023-02-26T17:18:13;3.73;;;1.77;;
18973;SDS011;9621;48.690;9.466;2023-02-26T17:20:41;2.73;;;2.10;;
18973;SDS011;9621;48.690;9.466;2023-02-26T17:23:10;5.93;;;2.40;;
18973;SDS011;9621;48.690;9.466;2023-02-26T17:25:42;3.30;;;2.33;;
18973;SDS011;9621;48.690;9.466;2023-02-26T17:28:13;3.77;;;2.03;;
18973;SDS011;9621;48.690;9.466;2023-02-26T17:30:55;2.13;;;1.80;;
18973;SDS011;9621;48.690;9.466;2023-02-26T17:33:22;2.07;;;1.80;;
18973;SDS011;9621;48.690;9.466;2023-02-26T17:35:52;2.40;;;2.00;;
18973;SDS011;9621;48.690;9.466;2023-02-26T17:38:21;3.13;;;2.10;;
18973;SDS011;9621;48.690;9.466;2023-02-26T17:40:49;2.70;;;1.73;;
18973;SDS011;9621;48.690;9.466;2023-02-26T17:43:20;2.40;;;1.83;;
18973;SDS011;9621;48.690;9.466;2023-02-26T17:45:52;3.70;;;1.93;;
18973;SDS011;9621;48.690;9.466;2023-02-26T17:48:19;1.60;;;1.50;;
18973;SDS011;9621;48.690;9.466;2023-02-26T17:50:47;3.60;;;1.73;;
18973;SDS011;9621;48.690;9.466;2023-02-26T17:53:20;2.03;;;1.70;;
18973;SDS011;9621;48.690;9.466;2023-02-26T17:55:48;3.17;;;1.70;;
18973;SDS011;9621;48.690;9.466;2023-02-26T17:58:27;2.07;;;1.87;;
18973;SDS011;9621;48.690;9.466;2023-02-26T18:00:56;2.93;;;2.00;;
18973;SDS011;9621;48.690;9.466;2023-02-26T18:03:23;6.10;;;4.00;;
18973;SDS011;9621;48.690;9.466;2023-02-26T18:05:53;4.10;;;2.03;;
18973;SDS011;9621;48.690;9.466;2023-02-26T18:08:25;5.50;;;2.70;;
18973;SDS011;9621;48.690;9.466;2023-02-26T18:10:54;2.00;;;1.57;;
18973;SDS011;9621;48.690;9.466;2023-02-26T18:13:21;2.23;;;1.70;;
18973;SDS011;9621;48.690;9.466;2023-02-26T18:15:51;6.27;;;2.80;;
18973;SDS011;9621;48.690;9.466;2023-02-26T18:18:20;5.87;;;2.50;;
18973;SDS011;9621;48.690;9.466;2023-02-26T18:20:49;6.37;;;3.00;;
18973;SDS011;9621;48.690;9.466;2023-02-26T18:23:17;5.57;;;3.00;;
18973;SDS011;9621;48.690;9.466;2023-02-26T18:25:53;3.27;;;2.60;;
18973;SDS011;9621;48.690;9.466;2023-02-26T18:28:27;3.83;;;2.13;;
18973;SDS011;9621;48.690;9.466;2023-02-26T18:30:58;5.83;;;2.10;;
18973;SDS011;9621;48.690;9.466;2023-02-26T18:33:37;4.97;;;2.37;;
18973;SDS011;9621;48.690;9.466;2023-02-26T18:48:32;2.30;;;2.00;;
18973;SDS011;9621;48.690;9.466;2023-02-26T18:51:39;3.43;;;2.03;;
